sensor_id;sensor_type;location;lat;lon;timestamp;P1;durP1;ratioP1;P2;durP2;ratioP2
78646;SDS011;67961;43.460;3.762;2023-09-19T00:02:16;5.10;;;1.58;;
78646;SDS011;67961;43.460;3.762;2023-09-19T00:04:42;5.05;;;1.80;;
78646;SDS011;67961;43.460;3.762;2023-09-19T00:07:08;4.53;;;1.60;;
78646;SDS011;67961;43.460;3.762;2023-09-19T00:09:34;6.43;;;2.00;;
78646;SDS011;67961;43.460;3.762;2023-09-19T00:12:04;4.88;;;1.52;;
78646;SDS011;67961;43.460;3.762;2023-09-19T00:14:31;6.75;;;1.80;;
78646;SDS011;67961;43.460;3.762;2023-09-19T00:17:01;6.90;;;2.17;;
78646;SDS011;67961;43.460;3.762;2023-09-19T00:19:33;4.63;;;1.83;;
78646;SDS011;67961;43.460;3.762;2023-09-19T00:21:59;4.40;;;1.65;;
78646;SDS011;67961;43.460;3.762;2023-09-19T00:24:25;3.33;;;1.60;;
78646;SDS011;67961;43.460;3.762;2023-09-19T00:26:53;2.65;;;1.50;;
78646;SDS011;67961;43.460;3.762;2023-09-19T00:29:20;5.15;;;2.10;;
78646;SDS011;67961;43.460;3.762;2023-09-19T00:31:48;6.85;;;1.95;;
78646;SDS011;67961;43.460;3.762;2023-09-19T00:34:15;4.97;;;1.95;;
78646;SDS011;67961;43.460;3.762;2023-09-19T00:36:41;6.05;;;2.08;;
78646;SDS011;67961;43.460;3.762;2023-09-19T00:39:08;4.45;;;1.83;;
78646;SDS011;67961;43.460;3.762;2023-09-19T00:41:35;3.40;;;1.60;;
78646;SDS011;67961;43.460;3.762;2023-09-19T00:44:02;3.92;;;1.70;;
78646;SDS011;67961;43.460;3.762;2023-09-19T00:46:29;3.70;;;1.88;;
78646;SDS011;67961;43.460;3.762;2023-09-19T00:48:55;6.40;;;2.10;;
78646;SDS011;67961;43.460;3.762;2023-09-19T00:51:22;3.22;;;1.73;;
78646;SDS011;67961;43.460;3.762;2023-09-19T00:53:51;8.30;;;2.20;;
78646;SDS011;67961;43.460;3.762;2023-09-19T00:56:17;8.88;;;2.00;;
78646;SDS011;67961;43.460;3.762;2023-09-19T00:58:44;5.65;;;1.90;;
78646;SDS011;67961;43.460;3.762;2023-09-19T01:01:11;6.60;;;1.92;;
78646;SDS011;67961;43.460;3.762;2023-09-19T01:03:39;5.03;;;1.98;;
78646;SDS011;67961;43.460;3.762;2023-09-19T01:06:06;3.80;;;1.70;;
78646;SDS011;67961;43.460;3.762;2023-09-19T01:08:33;7.50;;;2.00;;
78646;SDS011;67961;43.460;3.762;2023-09-19T01:16:42;5.35;;;2.55;;
78646;SDS011;67961;43.460;3.762;2023-09-19T01:19:32;5.72;;;1.80;;
78646;SDS011;67961;43.460;3.762;2023-09-19T01:22:10;5.95;;;1.88;;
78646;SDS011;67961;43.460;3.762;2023-09-19T01:27:17;7.63;;;2.55;;
78646;SDS011;67961;43.460;3.762;2023-09-19T01:32:11;7.13;;;2.15;;
78646;SDS011;67961;43.460;3.762;2023-09-19T01:34:43;6.80;;;2.20;;
78646;SDS011;67961;43.460;3.762;2023-09-19T01:37:12;4.65;;;1.70;;
78646;SDS011;67961;43.460;3.762;2023-09-19T01:39:38;8.27;;;2.20;;
78646;SDS011;67961;43.460;3.762;2023-09-19T01:42:11;4.45;;;1.85;;
78646;SDS011;67961;43.460;3.762;2023-09-19T01:44:44;4.07;;;1.95;;
78646;SDS011;67961;43.460;3.762;2023-09-19T01:47:18;7.03;;;2.30;;
78646;SDS011;67961;43.460;3.762;2023-09-19T01:50:20;6.72;;;2.15;;
78646;SDS011;67961;43.460;3.762;2023-09-19T01:52:38;5.30;;;2.28;;
78646;SDS011;67961;43.460;3.762;2023-09-19T01:55:09;5.57;;;2.15;;
78646;SDS011;67961;43.460;3.762;2023-09-19T01:57:40;7.50;;;1.75;;
78646;SDS011;67961;43.460;3.762;2023-09-19T02:00:09;5.68;;;2.00;;
78646;SDS011;67961;43.460;3.762;2023-09-19T02:02:40;6.53;;;2.20;;
78646;SDS011;67961;43.460;3.762;2023-09-19T02:05:07;6.85;;;2.08;;
78646;SDS011;67961;43.460;3.762;2023-09-19T02:07:33;5.85;;;1.70;;
78646;SDS011;67961;43.460;3.762;2023-09-19T02:10:02;4.88;;;2.03;;
78646;SDS011;67961;43.460;3.762;2023-09-19T02:12:30;7.95;;;2.15;;
78646;SDS011;67961;43.460;3.762;2023-09-19T02:14:57;6.78;;;1.73;;
78646;SDS011;67961;43.460;3.762;2023-09-19T02:17:24;5.72;;;1.92;;
78646;SDS011;67961;43.460;3.762;2023-09-19T02:19:53;5.80;;;1.85;;
78646;SDS011;67961;43.460;3.762;2023-09-19T02:22:20;8.95;;;2.50;;
78646;SDS011;67961;43.460;3.762;2023-09-19T02:24:47;6.45;;;2.47;;
78646;SDS011;67961;43.460;3.762;2023-09-19T02:27:13;4.93;;;1.45;;
78646;SDS011;67961;43.460;3.762;2023-09-19T02:29:41;5.28;;;2.35;;
78646;SDS011;67961;43.460;3.762;2023-09-19T02:32:07;10.18;;;2.80;;
78646;SDS011;67961;43.460;3.762;2023-09-19T02:34:37;6.18;;;1.67;;
78646;SDS011;67961;43.460;3.762;2023-09-19T02:37:04;7.40;;;2.13;;
78646;SDS011;67961;43.460;3.762;2023-09-19T02:39:30;5.00;;;1.58;;
78646;SDS011;67961;43.460;3.762;2023-09-19T02:41:56;4.30;;;2.05;;
78646;SDS011;67961;43.460;3.762;2023-09-19T02:44:23;7.65;;;2.15;;
78646;SDS011;67961;43.460;3.762;2023-09-19T02:46:49;5.07;;;2.10;;
78646;SDS011;67961;43.460;3.762;2023-09-19T02:49:15;6.85;;;1.77;;
78646;SDS011;67961;43.460;3.762;2023-09-19T02:51:43;8.75;;;2.15;;
78646;SDS011;67961;43.460;3.762;2023-09-19T02:54:09;4.95;;;2.10;;
78646;SDS011;67961;43.460;3.762;2023-09-19T02:56:36;5.47;;;1.88;;
78646;SDS011;67961;43.460;3.762;2023-09-19T02:59:03;7.28;;;2.22;;
78646;SDS011;67961;43.460;3.762;2023-09-19T03:01:29;7.15;;;2.17;;
78646;SDS011;67961;43.460;3.762;2023-09-19T03:03:55;6.35;;;1.90;;
78646;SDS011;67961;43.460;3.762;2023-09-19T03:06:21;5.95;;;1.90;;
78646;SDS011;67961;43.460;3.762;2023-09-19T03:08:48;4.68;;;2.03;;
78646;SDS011;67961;43.460;3.762;2023-09-19T03:11:16;8.15;;;2.10;;
78646;SDS011;67961;43.460;3.762;2023-09-19T03:13:49;5.88;;;2.10;;
78646;SDS011;67961;43.460;3.762;2023-09-19T03:16:16;7.38;;;2.10;;
78646;SDS011;67961;43.460;3.762;2023-09-19T03:18:42;7.45;;;2.45;;
78646;SDS011;67961;43.460;3.762;2023-09-19T03:21:08;5.97;;;1.80;;
78646;SDS011;67961;43.460;3.762;2023-09-19T03:23:35;10.35;;;2.00;;
78646;SDS011;67961;43.460;3.762;2023-09-19T03:26:01;8.88;;;1.75;;
78646;SDS011;67961;43.460;3.762;2023-09-19T03:28:32;7.00;;;2.10;;
78646;SDS011;67961;43.460;3.762;2023-09-19T03:31:03;7.63;;;2.20;;
78646;SDS011;67961;43.460;3.762;2023-09-19T03:33:32;3.85;;;1.67;;
78646;SDS011;67961;43.460;3.762;2023-09-19T03:35:59;5.82;;;2.10;;
78646;SDS011;67961;43.460;3.762;2023-09-19T03:38:26;4.93;;;1.73;;
78646;SDS011;67961;43.460;3.762;2023-09-19T03:40:52;5.47;;;1.90;;
78646;SDS011;67961;43.460;3.762;2023-09-19T03:43:18;4.80;;;1.98;;
78646;SDS011;67961;43.460;3.762;2023-09-19T03:45:44;6.30;;;2.17;;
78646;SDS011;67961;43.460;3.762;2023-09-19T03:48:11;5.60;;;2.05;;
78646;SDS011;67961;43.460;3.762;2023-09-19T03:50:38;7.10;;;2.33;;
78646;SDS011;67961;43.460;3.762;2023-09-19T03:53:04;7.78;;;2.10;;
78646;SDS011;67961;43.460;3.762;2023-09-19T03:55:33;6.35;;;2.28;;
78646;SDS011;67961;43.460;3.762;2023-09-19T03:58:04;7.63;;;2.17;;
78646;SDS011;67961;43.460;3.762;2023-09-19T04:00:30;5.50;;;1.65;;
78646;SDS011;67961;43.460;3.762;2023-09-19T04:02:56;13.55;;;2.60;;
78646;SDS011;67961;43.460;3.762;2023-09-19T04:05:22;8.32;;;2.30;;
78646;SDS011;67961;43.460;3.762;2023-09-19T04:07:48;6.32;;;2.33;;
78646;SDS011;67961;43.460;3.762;2023-09-19T04:10:21;5.90;;;2.10;;
78646;SDS011;67961;43.460;3.762;2023-09-19T04:12:51;8.00;;;2.35;;
78646;SDS011;67961;43.460;3.762;2023-09-19T04:15:18;3.83;;;1.73;;
78646;SDS011;67961;43.460;3.762;2023-09-19T04:17:44;4.20;;;1.98;;
78646;SDS011;67961;43.460;3.762;2023-09-19T04:20:10;3.97;;;1.58;;
78646;SDS011;67961;43.460;3.762;2023-09-19T04:22:40;5.50;;;2.00;;
78646;SDS011;67961;43.460;3.762;2023-09-19T04:25:06;6.35;;;2.30;;
78646;SDS011;67961;43.460;3.762;2023-09-19T04:27:33;5.22;;;1.88;;
78646;SDS011;67961;43.460;3.762;2023-09-19T04:29:59;4.55;;;1.63;;
78646;SDS011;67961;43.460;3.762;2023-09-19T04:32:28;6.57;;;2.17;;
78646;SDS011;67961;43.460;3.762;2023-09-19T04:34:54;6.30;;;2.25;;
78646;SDS011;67961;43.460;3.762;2023-09-19T04:37:25;5.80;;;1.98;;
78646;SDS011;67961;43.460;3.762;2023-09-19T04:39:51;3.17;;;1.65;;
78646;SDS011;67961;43.460;3.762;2023-09-19T04:42:17;5.63;;;2.30;;
78646;SDS011;67961;43.460;3.762;2023-09-19T04:44:44;6.70;;;2.05;;
78646;SDS011;67961;43.460;3.762;2023-09-19T04:47:10;5.55;;;2.10;;
78646;SDS011;67961;43.460;3.762;2023-09-19T04:49:37;9.18;;;2.50;;
78646;SDS011;67961;43.460;3.762;2023-09-19T04:52:05;5.47;;;2.20;;
78646;SDS011;67961;43.460;3.762;2023-09-19T04:54:31;7.72;;;2.47;;
78646;SDS011;67961;43.460;3.762;2023-09-19T04:56:59;8.10;;;2.15;;
78646;SDS011;67961;43.460;3.762;2023-09-19T04:59:28;7.28;;;2.05;;
78646;SDS011;67961;43.460;3.762;2023-09-19T05:01:54;7.90;;;2.10;;
78646;SDS011;67961;43.460;3.762;2023-09-19T05:04:21;5.65;;;2.80;;
78646;SDS011;67961;43.460;3.762;2023-09-19T05:06:47;8.15;;;2.42;;
78646;SDS011;67961;43.460;3.762;2023-09-19T05:09:13;8.13;;;1.98;;
78646;SDS011;67961;43.460;3.762;2023-09-19T05:11:40;8.32;;;1.95;;
78646;SDS011;67961;43.460;3.762;2023-09-19T05:14:06;6.93;;;2.00;;
78646;SDS011;67961;43.460;3.762;2023-09-19T05:16:32;7.18;;;1.95;;
78646;SDS011;67961;43.460;3.762;2023-09-19T05:18:59;7.40;;;1.90;;
78646;SDS011;67961;43.460;3.762;2023-09-19T05:21:26;5.05;;;1.75;;
78646;SDS011;67961;43.460;3.762;2023-09-19T05:23:56;8.73;;;2.45;;
78646;SDS011;67961;43.460;3.762;2023-09-19T05:26:22;5.30;;;1.92;;
78646;SDS011;67961;43.460;3.762;2023-09-19T05:28:48;5.78;;;2.25;;
78646;SDS011;67961;43.460;3.762;2023-09-19T05:31:14;6.10;;;2.10;;
78646;SDS011;67961;43.460;3.762;2023-09-19T05:33:41;9.48;;;2.88;;
78646;SDS011;67961;43.460;3.762;2023-09-19T05:36:10;4.82;;;1.83;;
78646;SDS011;67961;43.460;3.762;2023-09-19T05:38:37;5.50;;;1.88;;
78646;SDS011;67961;43.460;3.762;2023-09-19T05:41:06;9.98;;;2.20;;
78646;SDS011;67961;43.460;3.762;2023-09-19T05:43:33;6.43;;;1.95;;
78646;SDS011;67961;43.460;3.762;2023-09-19T05:45:59;9.50;;;3.15;;
78646;SDS011;67961;43.460;3.762;2023-09-19T05:48:26;6.50;;;2.45;;
78646;SDS011;67961;43.460;3.762;2023-09-19T05:50:52;10.15;;;2.42;;
78646;SDS011;67961;43.460;3.762;2023-09-19T05:53:18;6.55;;;1.90;;
78646;SDS011;67961;43.460;3.762;2023-09-19T05:55:44;4.25;;;1.73;;
78646;SDS011;67961;43.460;3.762;2023-09-19T05:58:10;8.13;;;2.22;;
78646;SDS011;67961;43.460;3.762;2023-09-19T06:00:39;8.38;;;2.25;;
78646;SDS011;67961;43.460;3.762;2023-09-19T06:03:07;8.25;;;2.70;;
78646;SDS011;67961;43.460;3.762;2023-09-19T06:05:34;6.72;;;1.77;;
78646;SDS011;67961;43.460;3.762;2023-09-19T06:08:00;5.63;;;1.95;;
78646;SDS011;67961;43.460;3.762;2023-09-19T06:10:32;6.35;;;2.10;;
78646;SDS011;67961;43.460;3.762;2023-09-19T06:12:59;6.25;;;2.15;;
78646;SDS011;67961;43.460;3.762;2023-09-19T06:15:25;6.05;;;1.92;;
78646;SDS011;67961;43.460;3.762;2023-09-19T06:17:55;8.70;;;2.38;;
78646;SDS011;67961;43.460;3.762;2023-09-19T06:20:22;5.05;;;1.98;;
78646;SDS011;67961;43.460;3.762;2023-09-19T06:22:49;6.60;;;1.90;;
78646;SDS011;67961;43.460;3.762;2023-09-19T06:25:15;8.00;;;2.35;;
78646;SDS011;67961;43.460;3.762;2023-09-19T06:27:45;7.22;;;2.25;;
78646;SDS011;67961;43.460;3.762;2023-09-19T06:30:11;12.25;;;3.05;;
78646;SDS011;67961;43.460;3.762;2023-09-19T06:32:38;8.20;;;2.55;;
78646;SDS011;67961;43.460;3.762;2023-09-19T06:35:05;5.32;;;2.20;;
78646;SDS011;67961;43.460;3.762;2023-09-19T06:37:36;8.48;;;2.70;;
78646;SDS011;67961;43.460;3.762;2023-09-19T06:40:12;8.50;;;2.38;;
78646;SDS011;67961;43.460;3.762;2023-09-19T06:42:39;5.72;;;2.28;;
78646;SDS011;67961;43.460;3.762;2023-09-19T06:45:05;5.97;;;2.05;;
78646;SDS011;67961;43.460;3.762;2023-09-19T06:47:32;6.25;;;2.38;;
78646;SDS011;67961;43.460;3.762;2023-09-19T06:49:58;7.38;;;2.38;;
78646;SDS011;67961;43.460;3.762;2023-09-19T06:52:24;4.10;;;1.98;;
78646;SDS011;67961;43.460;3.762;2023-09-19T06:54:52;6.38;;;1.92;;
78646;SDS011;67961;43.460;3.762;2023-09-19T06:57:18;8.57;;;2.08;;
78646;SDS011;67961;43.460;3.762;2023-09-19T06:59:45;5.57;;;1.80;;
78646;SDS011;67961;43.460;3.762;2023-09-19T07:02:11;5.90;;;2.38;;
78646;SDS011;67961;43.460;3.762;2023-09-19T07:04:38;5.65;;;2.00;;
78646;SDS011;67961;43.460;3.762;2023-09-19T07:07:05;5.00;;;1.55;;
78646;SDS011;67961;43.460;3.762;2023-09-19T07:09:34;5.15;;;2.10;;
78646;SDS011;67961;43.460;3.762;2023-09-19T07:12:00;4.35;;;1.52;;
78646;SDS011;67961;43.460;3.762;2023-09-19T07:14:26;5.18;;;1.95;;
78646;SDS011;67961;43.460;3.762;2023-09-19T07:16:53;4.90;;;2.00;;
78646;SDS011;67961;43.460;3.762;2023-09-19T07:19:20;6.95;;;1.95;;
78646;SDS011;67961;43.460;3.762;2023-09-19T07:21:46;5.82;;;1.45;;
78646;SDS011;67961;43.460;3.762;2023-09-19T07:24:15;5.00;;;1.40;;
78646;SDS011;67961;43.460;3.762;2023-09-19T07:26:45;6.78;;;1.85;;
78646;SDS011;67961;43.460;3.762;2023-09-19T07:29:11;10.32;;;2.95;;
78646;SDS011;67961;43.460;3.762;2023-09-19T07:31:37;8.82;;;2.83;;
78646;SDS011;67961;43.460;3.762;2023-09-19T07:34:03;7.03;;;1.88;;
78646;SDS011;67961;43.460;3.762;2023-09-19T07:36:30;4.97;;;1.73;;
78646;SDS011;67961;43.460;3.762;2023-09-19T07:38:57;6.88;;;2.03;;
78646;SDS011;67961;43.460;3.762;2023-09-19T07:41:25;8.32;;;2.15;;
78646;SDS011;67961;43.460;3.762;2023-09-19T07:43:51;4.95;;;1.90;;
78646;SDS011;67961;43.460;3.762;2023-09-19T07:46:17;7.15;;;1.70;;
78646;SDS011;67961;43.460;3.762;2023-09-19T07:48:43;6.05;;;1.80;;
78646;SDS011;67961;43.460;3.762;2023-09-19T07:51:13;7.25;;;2.95;;
78646;SDS011;67961;43.460;3.762;2023-09-19T07:53:41;5.45;;;1.80;;
78646;SDS011;67961;43.460;3.762;2023-09-19T07:56:08;6.68;;;1.70;;
78646;SDS011;67961;43.460;3.762;2023-09-19T07:58:34;5.28;;;2.00;;
78646;SDS011;67961;43.460;3.762;2023-09-19T08:01:05;12.45;;;2.00;;
78646;SDS011;67961;43.460;3.762;2023-09-19T08:03:32;5.50;;;1.60;;
78646;SDS011;67961;43.460;3.762;2023-09-19T08:05:59;3.35;;;1.50;;
78646;SDS011;67961;43.460;3.762;2023-09-19T08:08:25;5.53;;;1.80;;
78646;SDS011;67961;43.460;3.762;2023-09-19T08:10:57;7.35;;;1.60;;
78646;SDS011;67961;43.460;3.762;2023-09-19T08:13:24;2.88;;;1.65;;
78646;SDS011;67961;43.460;3.762;2023-09-19T08:15:50;3.55;;;1.65;;
78646;SDS011;67961;43.460;3.762;2023-09-19T08:18:17;3.60;;;1.30;;
78646;SDS011;67961;43.460;3.762;2023-09-19T08:20:43;6.18;;;1.98;;
78646;SDS011;67961;43.460;3.762;2023-09-19T08:23:11;4.53;;;1.60;;
78646;SDS011;67961;43.460;3.762;2023-09-19T08:25:37;4.35;;;1.52;;
78646;SDS011;67961;43.460;3.762;2023-09-19T08:28:05;3.60;;;1.52;;
78646;SDS011;67961;43.460;3.762;2023-09-19T08:30:34;3.70;;;1.40;;
78646;SDS011;67961;43.460;3.762;2023-09-19T08:33:00;6.80;;;1.80;;
78646;SDS011;67961;43.460;3.762;2023-09-19T08:35:29;3.67;;;1.67;;
78646;SDS011;67961;43.460;3.762;2023-09-19T08:37:55;5.88;;;2.03;;
78646;SDS011;67961;43.460;3.762;2023-09-19T08:40:21;3.42;;;1.35;;
78646;SDS011;67961;43.460;3.762;2023-09-19T08:42:48;6.38;;;1.95;;
78646;SDS011;67961;43.460;3.762;2023-09-19T08:45:19;6.88;;;2.10;;
78646;SDS011;67961;43.460;3.762;2023-09-19T08:48:31;79.47;;;60.67;;
78646;SDS011;67961;43.460;3.762;2023-09-19T08:50:33;123.57;;;90.57;;
78646;SDS011;67961;43.460;3.762;2023-09-19T08:53:05;121.15;;;89.72;;
78646;SDS011;67961;43.460;3.762;2023-09-19T08:58:05;6.60;;;2.22;;
78646;SDS011;67961;43.460;3.762;2023-09-19T09:00:33;4.13;;;1.70;;
78646;SDS011;67961;43.460;3.762;2023-09-19T09:03:01;3.03;;;1.55;;
78646;SDS011;67961;43.460;3.762;2023-09-19T09:05:29;3.72;;;1.88;;
78646;SDS011;67961;43.460;3.762;2023-09-19T09:07:55;4.05;;;1.73;;
78646;SDS011;67961;43.460;3.762;2023-09-19T09:10:22;4.20;;;2.15;;
78646;SDS011;67961;43.460;3.762;2023-09-19T09:12:52;5.82;;;2.10;;
78646;SDS011;67961;43.460;3.762;2023-09-19T09:15:20;3.67;;;1.48;;
78646;SDS011;67961;43.460;3.762;2023-09-19T09:17:48;2.70;;;1.50;;
78646;SDS011;67961;43.460;3.762;2023-09-19T09:20:15;3.28;;;1.45;;
78646;SDS011;67961;43.460;3.762;2023-09-19T09:22:54;4.25;;;1.75;;
78646;SDS011;67961;43.460;3.762;2023-09-19T09:25:21;4.50;;;1.73;;
78646;SDS011;67961;43.460;3.762;2023-09-19T09:28:06;2.45;;;1.38;;
78646;SDS011;67961;43.460;3.762;2023-09-19T09:30:33;5.18;;;1.55;;
78646;SDS011;67961;43.460;3.762;2023-09-19T09:33:09;5.72;;;1.60;;
78646;SDS011;67961;43.460;3.762;2023-09-19T09:35:58;3.67;;;1.35;;
78646;SDS011;67961;43.460;3.762;2023-09-19T09:38:46;2.38;;;1.58;;
78646;SDS011;67961;43.460;3.762;2023-09-19T09:41:16;5.03;;;1.55;;
78646;SDS011;67961;43.460;3.762;2023-09-19T09:43:52;3.80;;;1.70;;
78646;SDS011;67961;43.460;3.762;2023-09-19T09:46:19;2.72;;;1.40;;
78646;SDS011;67961;43.460;3.762;2023-09-19T09:48:46;3.78;;;1.50;;
78646;SDS011;67961;43.460;3.762;2023-09-19T09:51:32;3.88;;;1.90;;
78646;SDS011;67961;43.460;3.762;2023-09-19T09:54:14;2.85;;;1.60;;
78646;SDS011;67961;43.460;3.762;2023-09-19T09:57:02;4.30;;;1.60;;
78646;SDS011;67961;43.460;3.762;2023-09-19T09:59:51;3.53;;;1.55;;
78646;SDS011;67961;43.460;3.762;2023-09-19T10:02:25;6.47;;;1.63;;
78646;SDS011;67961;43.460;3.762;2023-09-19T10:04:57;6.25;;;1.52;;
78646;SDS011;67961;43.460;3.762;2023-09-19T10:07:40;2.35;;;1.23;;
78646;SDS011;67961;43.460;3.762;2023-09-19T10:10:13;1.95;;;1.30;;
78646;SDS011;67961;43.460;3.762;2023-09-19T10:12:47;3.55;;;1.50;;
78646;SDS011;67961;43.460;3.762;2023-09-19T10:15:17;3.42;;;1.25;;
78646;SDS011;67961;43.460;3.762;2023-09-19T10:17:46;2.65;;;1.55;;
78646;SDS011;67961;43.460;3.762;2023-09-19T10:20:13;3.35;;;1.40;;
78646;SDS011;67961;43.460;3.762;2023-09-19T10:23:09;3.00;;;1.40;;
78646;SDS011;67961;43.460;3.762;2023-09-19T10:25:41;2.50;;;1.25;;
78646;SDS011;67961;43.460;3.762;2023-09-19T10:28:08;3.35;;;1.67;;
78646;SDS011;67961;43.460;3.762;2023-09-19T10:30:40;2.13;;;1.52;;
78646;SDS011;67961;43.460;3.762;2023-09-19T10:33:10;3.30;;;1.65;;
78646;SDS011;67961;43.460;3.762;2023-09-19T10:35:39;3.28;;;1.65;;
78646;SDS011;67961;43.460;3.762;2023-09-19T10:38:06;3.05;;;1.60;;
78646;SDS011;67961;43.460;3.762;2023-09-19T10:40:34;2.15;;;1.30;;
78646;SDS011;67961;43.460;3.762;2023-09-19T10:43:02;2.35;;;1.30;;
78646;SDS011;67961;43.460;3.762;2023-09-19T10:45:30;4.32;;;1.95;;
78646;SDS011;67961;43.460;3.762;2023-09-19T10:47:57;2.75;;;1.33;;
78646;SDS011;67961;43.460;3.762;2023-09-19T10:50:23;2.80;;;1.25;;
78646;SDS011;67961;43.460;3.762;2023-09-19T10:52:49;2.58;;;1.30;;
78646;SDS011;67961;43.460;3.762;2023-09-19T10:55:23;5.70;;;1.65;;
78646;SDS011;67961;43.460;3.762;2023-09-19T10:57:50;4.53;;;1.50;;
78646;SDS011;67961;43.460;3.762;2023-09-19T11:00:16;3.75;;;1.50;;
78646;SDS011;67961;43.460;3.762;2023-09-19T11:03:05;4.13;;;1.73;;
78646;SDS011;67961;43.460;3.762;2023-09-19T11:05:32;2.67;;;1.60;;
78646;SDS011;67961;43.460;3.762;2023-09-19T11:07:59;1.98;;;1.50;;
78646;SDS011;67961;43.460;3.762;2023-09-19T11:10:47;3.60;;;1.60;;
78646;SDS011;67961;43.460;3.762;2023-09-19T11:13:24;2.17;;;1.30;;
78646;SDS011;67961;43.460;3.762;2023-09-19T11:26:47;4.40;;;1.55;;
78646;SDS011;67961;43.460;3.762;2023-09-19T11:29:26;3.95;;;1.50;;
78646;SDS011;67961;43.460;3.762;2023-09-19T11:31:52;4.57;;;1.45;;
78646;SDS011;67961;43.460;3.762;2023-09-19T11:39:37;2.75;;;1.80;;
78646;SDS011;67961;43.460;3.762;2023-09-19T11:44:48;3.38;;;1.40;;
78646;SDS011;67961;43.460;3.762;2023-09-19T11:47:17;10.27;;;2.70;;
78646;SDS011;67961;43.460;3.762;2023-09-19T11:49:44;5.30;;;1.80;;
78646;SDS011;67961;43.460;3.762;2023-09-19T11:52:10;3.05;;;1.42;;
78646;SDS011;67961;43.460;3.762;2023-09-19T11:54:39;3.47;;;1.48;;
78646;SDS011;67961;43.460;3.762;2023-09-19T11:57:06;2.30;;;1.63;;
78646;SDS011;67961;43.460;3.762;2023-09-19T11:59:33;1.95;;;1.27;;
78646;SDS011;67961;43.460;3.762;2023-09-19T12:02:03;3.25;;;1.45;;
78646;SDS011;67961;43.460;3.762;2023-09-19T12:04:33;4.32;;;1.70;;
78646;SDS011;67961;43.460;3.762;2023-09-19T12:09:29;3.15;;;2.08;;
78646;SDS011;67961;43.460;3.762;2023-09-19T12:11:55;8.75;;;1.42;;
78646;SDS011;67961;43.460;3.762;2023-09-19T12:14:25;2.13;;;1.50;;
78646;SDS011;67961;43.460;3.762;2023-09-19T12:16:53;5.68;;;1.80;;
78646;SDS011;67961;43.460;3.762;2023-09-19T12:19:20;2.95;;;1.63;;
78646;SDS011;67961;43.460;3.762;2023-09-19T12:22:00;2.50;;;1.48;;
78646;SDS011;67961;43.460;3.762;2023-09-19T12:24:29;2.38;;;1.40;;
78646;SDS011;67961;43.460;3.762;2023-09-19T12:27:05;3.15;;;1.48;;
78646;SDS011;67961;43.460;3.762;2023-09-19T12:29:41;5.80;;;2.05;;
78646;SDS011;67961;43.460;3.762;2023-09-19T12:32:10;3.67;;;1.65;;
78646;SDS011;67961;43.460;3.762;2023-09-19T12:34:38;2.58;;;1.67;;
78646;SDS011;67961;43.460;3.762;2023-09-19T12:37:08;3.20;;;1.50;;
78646;SDS011;67961;43.460;3.762;2023-09-19T12:39:44;5.88;;;2.35;;
78646;SDS011;67961;43.460;3.762;2023-09-19T12:42:21;4.28;;;2.22;;
78646;SDS011;67961;43.460;3.762;2023-09-19T12:44:48;2.55;;;1.83;;
78646;SDS011;67961;43.460;3.762;2023-09-19T12:47:20;3.85;;;1.77;;
78646;SDS011;67961;43.460;3.762;2023-09-19T12:52:38;4.93;;;1.80;;
78646;SDS011;67961;43.460;3.762;2023-09-19T12:55:05;5.78;;;2.17;;
78646;SDS011;67961;43.460;3.762;2023-09-19T12:57:33;3.72;;;2.20;;
78646;SDS011;67961;43.460;3.762;2023-09-19T13:00:03;3.33;;;2.17;;
78646;SDS011;67961;43.460;3.762;2023-09-19T13:02:36;2.83;;;1.67;;
78646;SDS011;67961;43.460;3.762;2023-09-19T13:05:02;2.33;;;1.63;;
78646;SDS011;67961;43.460;3.762;2023-09-19T13:07:41;3.63;;;2.10;;
78646;SDS011;67961;43.460;3.762;2023-09-19T13:10:09;7.68;;;2.05;;
78646;SDS011;67961;43.460;3.762;2023-09-19T13:12:36;3.22;;;1.88;;
78646;SDS011;67961;43.460;3.762;2023-09-19T13:17:44;4.93;;;1.80;;
78646;SDS011;67961;43.460;3.762;2023-09-19T13:20:23;4.57;;;2.33;;
78646;SDS011;67961;43.460;3.762;2023-09-19T13:22:52;5.45;;;1.70;;
78646;SDS011;67961;43.460;3.762;2023-09-19T13:25:20;5.40;;;2.40;;
78646;SDS011;67961;43.460;3.762;2023-09-19T13:30:13;6.75;;;3.00;;
78646;SDS011;67961;43.460;3.762;2023-09-19T13:32:40;5.75;;;3.63;;
78646;SDS011;67961;43.460;3.762;2023-09-19T13:35:08;2.85;;;2.20;;
78646;SDS011;67961;43.460;3.762;2023-09-19T13:37:34;4.40;;;1.98;;
78646;SDS011;67961;43.460;3.762;2023-09-19T13:40:07;8.57;;;2.75;;
78646;SDS011;67961;43.460;3.762;2023-09-19T13:42:33;3.33;;;2.08;;
78646;SDS011;67961;43.460;3.762;2023-09-19T13:44:59;4.03;;;2.10;;
78646;SDS011;67961;43.460;3.762;2023-09-19T13:47:25;4.25;;;2.05;;
78646;SDS011;67961;43.460;3.762;2023-09-19T13:49:52;4.38;;;1.98;;
78646;SDS011;67961;43.460;3.762;2023-09-19T13:52:21;4.72;;;2.13;;
78646;SDS011;67961;43.460;3.762;2023-09-19T13:54:48;4.25;;;1.90;;
78646;SDS011;67961;43.460;3.762;2023-09-19T13:57:14;3.70;;;1.88;;
78646;SDS011;67961;43.460;3.762;2023-09-19T13:59:41;2.20;;;1.70;;
78646;SDS011;67961;43.460;3.762;2023-09-19T14:02:07;3.35;;;1.95;;
78646;SDS011;67961;43.460;3.762;2023-09-19T14:04:33;3.08;;;1.63;;
78646;SDS011;67961;43.460;3.762;2023-09-19T14:07:00;2.33;;;1.67;;
78646;SDS011;67961;43.460;3.762;2023-09-19T14:09:26;4.07;;;2.15;;
78646;SDS011;67961;43.460;3.762;2023-09-19T14:11:52;3.65;;;2.08;;
78646;SDS011;67961;43.460;3.762;2023-09-19T14:14:19;3.20;;;1.77;;
78646;SDS011;67961;43.460;3.762;2023-09-19T14:16:48;4.53;;;2.05;;
78646;SDS011;67961;43.460;3.762;2023-09-19T14:19:14;4.93;;;2.13;;
78646;SDS011;67961;43.460;3.762;2023-09-19T14:21:41;7.10;;;2.22;;
78646;SDS011;67961;43.460;3.762;2023-09-19T14:24:07;2.17;;;1.73;;
78646;SDS011;67961;43.460;3.762;2023-09-19T14:26:37;4.50;;;1.95;;
78646;SDS011;67961;43.460;3.762;2023-09-19T14:29:03;2.80;;;1.98;;
78646;SDS011;67961;43.460;3.762;2023-09-19T14:31:29;3.55;;;2.17;;
78646;SDS011;67961;43.460;3.762;2023-09-19T14:33:55;5.88;;;2.30;;
78646;SDS011;67961;43.460;3.762;2023-09-19T14:36:22;5.05;;;2.50;;
78646;SDS011;67961;43.460;3.762;2023-09-19T14:38:51;6.57;;;2.00;;
78646;SDS011;67961;43.460;3.762;2023-09-19T14:41:19;6.32;;;2.65;;
78646;SDS011;67961;43.460;3.762;2023-09-19T14:43:45;4.10;;;1.90;;
78646;SDS011;67961;43.460;3.762;2023-09-19T14:46:11;1.70;;;1.52;;
78646;SDS011;67961;43.460;3.762;2023-09-19T14:48:37;5.40;;;2.03;;
78646;SDS011;67961;43.460;3.762;2023-09-19T14:51:03;4.57;;;2.00;;
78646;SDS011;67961;43.460;3.762;2023-09-19T14:53:30;7.18;;;3.40;;
78646;SDS011;67961;43.460;3.762;2023-09-19T14:55:59;7.32;;;4.85;;
78646;SDS011;67961;43.460;3.762;2023-09-19T14:58:25;6.88;;;3.42;;
78646;SDS011;67961;43.460;3.762;2023-09-19T15:01:00;4.78;;;2.20;;
78646;SDS011;67961;43.460;3.762;2023-09-19T15:03:27;4.72;;;2.17;;
78646;SDS011;67961;43.460;3.762;2023-09-19T15:05:58;7.10;;;3.15;;
78646;SDS011;67961;43.460;3.762;2023-09-19T15:08:25;2.22;;;1.88;;
78646;SDS011;67961;43.460;3.762;2023-09-19T15:10:51;4.10;;;2.28;;
78646;SDS011;67961;43.460;3.762;2023-09-19T15:13:18;4.43;;;2.05;;
78646;SDS011;67961;43.460;3.762;2023-09-19T15:15:44;5.63;;;2.78;;
78646;SDS011;67961;43.460;3.762;2023-09-19T15:18:12;4.78;;;2.72;;
78646;SDS011;67961;43.460;3.762;2023-09-19T15:20:44;8.43;;;2.70;;
78646;SDS011;67961;43.460;3.762;2023-09-19T15:23:10;8.75;;;3.92;;
78646;SDS011;67961;43.460;3.762;2023-09-19T15:25:37;6.00;;;2.40;;
78646;SDS011;67961;43.460;3.762;2023-09-19T15:28:06;5.60;;;2.88;;
78646;SDS011;67961;43.460;3.762;2023-09-19T15:30:36;5.05;;;2.63;;
78646;SDS011;67961;43.460;3.762;2023-09-19T15:33:03;7.25;;;2.55;;
78646;SDS011;67961;43.460;3.762;2023-09-19T15:35:29;3.95;;;2.13;;
78646;SDS011;67961;43.460;3.762;2023-09-19T15:37:55;4.55;;;2.65;;
78646;SDS011;67961;43.460;3.762;2023-09-19T15:40:23;3.47;;;2.28;;